CheckWX is a tool to help pilots better visualize weather data.  It is not intended as a substitute for an official pre-flight weather briefing.

07:31:37 UTC

KLRY METAR
Lawrence Smith Memorial Airport
Harrisonville, Missouri, USA
Current

17 mins ago

KLRY 290715Z AUTO 00000KT 10SM CLR 15/14 A3008 RMK AO2
Observed
May-29 @ 07:15 UTC
Visibility
Flight Rules
VFR
Cloud Levels
  • Clear skies
Temperature
15°C / 59°F
Dewpoint
14°C / 57°F
Humidity
94%
Altimeter
30.08" Hg
Pressure
1018.62 hPa
Previous

37 mins ago

KLRY 290655Z AUTO 00000KT 10SM SCT070 15/15 A3008 RMK AO2
Observed
May-29 @ 06:55 UTC
Visibility
Flight Rules
VFR
Cloud Levels
  • Scattered at 7,000' AGL
Temperature
15°C / 59°F
Dewpoint
15°C / 59°F
Humidity
100%
Altimeter
30.08" Hg
Pressure
1018.62 hPa
Previous

57 mins ago

KLRY 290635Z AUTO 00000KT 10SM BKN070 15/14 A3008 RMK AO2
Observed
May-29 @ 06:35 UTC
Visibility
Flight Rules
VFR
Cloud Levels
  • Broken at 7,000' AGL
Temperature
15°C / 59°F
Dewpoint
14°C / 57°F
Humidity
94%
Altimeter
30.08" Hg
Pressure
1018.62 hPa